Time;durP1;ratioP1;P1;durP2;ratioP2;P2;SDS_P1;SDS_P2;PMS_P1;PMS_P2;Temp;Humidity;BMP_temperature;BMP_pressure;BME280_temperature;BME280_humidity;BME280_pressure;Samples;Min_cycle;Max_cycle;Signal;HPM_P1;HPM_P2
2022/09/02 00:01:32;;;;;;;2.70;1.57;;;;;;;26.49;40.61;101597.47;1665412;85;21028;-54
2022/09/02 00:04:04;;;;;;;3.47;1.42;;;;;;;26.48;41.02;101599.78;1709445;84;21006;-57
2022/09/02 00:06:30;;;;;;;3.70;1.40;;;;;;;26.45;41.26;101610.67;1573701;90;21116;-56
2022/09/02 00:08:58;;;;;;;6.20;1.52;;;;;;;26.43;40.57;101603.27;1645710;86;21129;-57
2022/09/02 00:11:28;;;;;;;1.90;1.30;;;;;;;26.42;39.16;101606.91;1645670;86;21010;-55
2022/09/02 00:13:55;;;;;;;2.47;1.02;;;;;;;26.41;38.82;101606.53;1646035;86;21112;-54
2022/09/02 00:16:23;;;;;;;3.10;1.40;;;;;;;26.39;38.97;101603.13;1646261;86;21069;-57
2022/09/02 00:18:51;;;;;;;2.60;0.98;;;;;;;26.40;38.88;101604.80;1645415;86;21034;-54
2022/09/02 00:21:19;;;;;;;2.95;1.45;;;;;;;26.39;38.53;101600.45;1643010;86;21582;-55
2022/09/02 00:23:45;;;;;;;2.75;1.55;;;;;;;26.37;38.55;101602.38;1643290;86;21056;-54
2022/09/02 00:26:12;;;;;;;4.75;1.27;;;;;;;26.37;38.50;101610.39;1645001;86;21082;-54
2022/09/02 00:28:39;;;;;;;5.70;1.37;;;;;;;26.37;37.82;101603.72;1644792;86;21022;-60
2022/09/02 00:31:06;;;;;;;3.22;1.15;;;;;;;26.35;37.36;101603.84;1644433;86;21541;-55
2022/09/02 00:33:34;;;;;;;1.80;1.12;;;;;;;26.37;37.55;101599.72;1642978;86;21069;-54
2022/09/02 00:36:02;;;;;;;2.87;1.30;;;;;;;26.36;38.02;101596.19;1656548;86;21093;-55
2022/09/02 00:38:32;;;;;;;1.98;1.10;;;;;;;26.37;38.18;101594.38;1644818;86;21024;-55
2022/09/02 00:41:00;;;;;;;3.83;1.15;;;;;;;26.38;38.25;101601.41;1640996;86;21038;-59
2022/09/02 00:43:52;;;;;;;2.47;1.20;;;;;;;26.38;37.68;101588.06;1647560;86;21124;-55
2022/09/02 00:46:21;;;;;;;4.35;1.42;;;;;;;26.37;37.50;101593.05;1646870;86;21062;-60
2022/09/02 00:49:14;;;;;;;2.52;1.27;;;;;;;26.37;37.71;101593.05;1644205;86;21062;-56
2022/09/02 00:51:49;;;;;;;1.85;1.20;;;;;;;26.38;37.76;101601.41;1501691;93;21097;-55
2022/09/02 00:54:16;;;;;;;3.58;0.95;;;;;;;26.38;36.95;101612.08;1521408;93;21651;-55
2022/09/02 00:56:44;;;;;;;1.77;1.00;;;;;;;26.37;36.87;101607.72;1521303;93;21085;-56
2022/09/02 00:59:24;;;;;;;2.27;1.00;;;;;;;26.35;36.88;101606.98;1521440;93;21246;-60
2022/09/02 01:01:51;;;;;;;2.55;1.05;;;;;;;26.34;36.57;101605.27;1521395;93;21666;-54
2022/09/02 01:04:17;;;;;;;2.62;1.20;;;;;;;26.33;36.71;101604.91;1539214;92;21133;-59
2022/09/02 01:06:44;;;;;;;1.62;1.00;;;;;;;26.34;37.23;101603.93;1516679;94;21495;-56
2022/09/02 01:09:13;;;;;;;3.58;1.22;;;;;;;26.34;37.25;101602.59;1540885;92;21072;-54
2022/09/02 01:11:46;;;;;;;3.27;1.10;;;;;;;26.32;37.07;101612.06;1516393;95;21109;-54
2022/09/02 01:14:16;;;;;;;5.03;1.20;;;;;;;26.32;36.99;101613.39;1540829;92;21583;-56
2022/09/02 01:16:47;;;;;;;2.17;1.30;;;;;;;26.33;36.97;101616.92;1516722;94;21100;-58
2022/09/02 01:19:27;;;;;;;2.33;1.40;;;;;;;26.32;37.44;101618.73;1527561;93;21580;-53
2022/09/02 01:21:56;;;;;;;2.83;1.50;;;;;;;26.32;37.75;101619.20;1508202;94;21162;-54
2022/09/02 01:24:27;;;;;;;4.40;1.62;;;;;;;26.32;38.16;101628.55;1507893;94;21070;-58
2022/09/02 01:26:55;;;;;;;4.80;1.90;;;;;;;26.32;38.12;101637.88;1519972;92;21629;-55
2022/09/02 01:29:23;;;;;;;2.55;1.00;;;;;;;26.32;38.38;101633.87;1551151;92;21601;-56
2022/09/02 01:31:50;;;;;;;4.15;1.50;;;;;;;26.33;38.43;101630.27;1552780;92;21117;-60
2022/09/02 01:34:17;;;;;;;2.47;1.27;;;;;;;26.33;37.45;101628.45;1549424;92;21575;-54
2022/09/02 01:36:45;;;;;;;2.45;1.17;;;;;;;26.33;37.33;101628.92;1543757;92;21098;-61
2022/09/02 01:39:12;;;;;;;7.03;1.47;;;;;;;26.33;37.83;101631.59;1550932;92;21078;-56
2022/09/02 01:41:39;;;;;;;5.33;1.37;;;;;;;26.32;37.84;101621.88;1552516;92;21085;-55
2022/09/02 01:44:06;;;;;;;1.92;1.17;;;;;;;26.31;38.23;101628.19;1543599;92;21077;-54
2022/09/02 01:46:33;;;;;;;1.27;1.00;;;;;;;26.32;37.62;101623.20;1541684;92;21069;-54
2022/09/02 01:49:00;;;;;;;4.58;0.90;;;;;;;26.29;37.34;101622.98;1556282;90;21123;-54
2022/09/02 01:51:27;;;;;;;3.22;1.45;;;;;;;26.28;37.05;101626.59;1588426;90;21116;-55
2022/09/02 01:53:54;;;;;;;2.65;1.20;;;;;;;26.27;37.42;101625.38;1588315;89;21045;-54
2022/09/02 01:56:21;;;;;;;3.77;1.15;;;;;;;26.27;37.64;101640.05;1588516;90;21073;-55
2022/09/02 01:58:49;;;;;;;1.70;1.10;;;;;;;26.27;37.75;101640.05;1588541;90;21097;-57
2022/09/02 02:01:15;;;;;;;3.02;1.00;;;;;;;26.27;37.19;101634.72;1588178;90;21129;-54
2022/09/02 02:03:45;;;;;;;4.35;1.00;;;;;;;26.27;37.19;101637.38;1588287;90;21525;-54
2022/09/02 02:06:15;;;;;;;2.40;1.12;;;;;;;26.27;37.15;101649.39;1588483;90;21093;-54
2022/09/02 02:08:43;;;;;;;;;;;;;;;26.26;36.93;101647.67;1590797;90;21615;-57
2022/09/02 02:11:10;;;;;;;2.47;1.25;;;;;;;26.24;37.07;101646.45;1588339;90;20124;-58
2022/09/02 02:13:37;;;;;;;4.28;1.12;;;;;;;26.24;37.02;101645.59;1588432;90;21114;-57
2022/09/02 02:16:06;;;;;;;3.27;1.22;;;;;;;26.23;37.41;101647.44;1635865;85;21092;-53
2022/09/02 02:18:32;;;;;;;4.08;1.30;;;;;;;26.23;37.60;101642.58;1708387;81;21037;-56
2022/09/02 02:20:59;;;;;;;4.33;1.02;;;;;;;26.22;37.33;101643.52;1739792;81;21001;-54
2022/09/02 02:23:26;;;;;;;4.25;1.10;;;;;;;26.22;37.01;101638.19;1739705;81;21552;-53
2022/09/02 02:25:53;;;;;;;3.35;1.12;;;;;;;26.19;36.69;101644.63;1739669;81;21068;-58
2022/09/02 02:28:20;;;;;;;2.02;0.82;;;;;;;26.19;36.87;101640.63;1739572;81;21537;-54
2022/09/02 02:30:48;;;;;;;3.42;1.30;;;;;;;26.17;36.50;101647.03;1736853;81;21049;-57
2022/09/02 02:33:15;;;;;;;4.42;1.20;;;;;;;26.17;36.47;101649.19;1739786;82;21028;-54
2022/09/02 02:35:42;;;;;;;1.32;1.10;;;;;;;26.16;36.81;101649.31;1739556;81;20997;-55
2022/09/02 02:38:09;;;;;;;3.42;1.45;;;;;;;26.16;36.63;101647.97;1739799;81;21508;-56
2022/09/02 02:40:37;;;;;;;2.12;1.10;;;;;;;26.16;36.73;101655.98;1739501;81;21072;-54
2022/09/02 02:43:03;;;;;;;2.72;1.30;;;;;;;26.17;36.58;101663.03;1738009;81;21076;-54
2022/09/02 02:45:31;;;;;;;1.87;1.30;;;;;;;26.16;37.06;101673.31;1736751;81;21062;-55
2022/09/02 02:47:59;;;;;;;3.45;1.47;;;;;;;26.17;36.95;101679.04;1736602;81;21025;-54
2022/09/02 02:50:26;;;;;;;4.50;1.35;;;;;;;26.16;36.57;101676.84;1733742;83;21089;-54
2022/09/02 02:52:53;;;;;;;1.65;1.10;;;;;;;26.16;36.46;101675.98;1736733;81;21021;-57
2022/09/02 02:55:21;;;;;;;5.92;1.30;;;;;;;26.15;36.40;101679.62;1736637;81;21021;-54
2022/09/02 02:57:48;;;;;;;3.75;1.17;;;;;;;26.14;36.59;101679.24;1736798;81;21060;-56
2022/09/02 03:00:23;;;;;;;3.77;1.30;;;;;;;26.13;36.71;101676.22;1736642;81;21068;-53
2022/09/02 03:02:55;;;;;;;3.08;1.10;;;;;;;26.13;37.09;101685.56;1655511;85;21041;-62
2022/09/02 03:05:23;;;;;;;2.15;1.10;;;;;;;26.12;36.70;101689.17;1589282;90;21557;-56
2022/09/02 03:07:50;;;;;;;2.45;1.10;;;;;;;26.11;36.39;101687.48;1591395;90;21614;-59
2022/09/02 03:10:18;;;;;;;4.25;1.12;;;;;;;26.10;36.60;101685.77;1591430;90;21221;-56
2022/09/02 03:12:46;;;;;;;4.53;1.00;;;;;;;26.08;36.69;101689.02;1591684;90;21117;-55
2022/09/02 03:15:18;;;;;;;1.85;1.45;;;;;;;26.06;36.52;101689.58;1591612;90;21065;-56
2022/09/02 03:17:47;;;;;;;2.37;1.20;;;;;;;26.04;36.32;101687.51;1591231;90;21073;-54
2022/09/02 03:20:17;;;;;;;2.25;1.27;;;;;;;26.03;36.43;101692.48;1591406;90;21118;-55
2022/09/02 03:22:46;;;;;;;3.67;1.05;;;;;;;26.00;36.47;101694.88;1591657;90;21565;-54
2022/09/02 03:25:16;;;;;;;6.90;1.10;;;;;;;25.99;36.27;101700.34;1591457;90;21121;-58
2022/09/02 03:27:44;;;;;;;6.45;1.40;;;;;;;25.97;36.04;101698.22;1591547;90;21101;-54
2022/09/02 03:30:16;;;;;;;2.52;1.17;;;;;;;25.96;36.33;101705.88;1591355;90;21149;-55
2022/09/02 03:32:43;;;;;;;3.98;1.07;;;;;;;25.95;36.36;101704.15;1591934;90;21117;-58
2022/09/02 03:35:14;;;;;;;5.92;1.57;;;;;;;25.93;36.36;101704.27;1579764;90;21553;-54
2022/09/02 03:37:42;;;;;;;;;;;;;;;25.93;36.70;101702.08;1594229;90;21100;-57
2022/09/02 03:40:12;;;;;;;6.03;1.42;;;;;;;25.90;36.76;101714.30;1591614;90;20145;-54
2022/09/02 03:42:40;;;;;;;4.42;1.37;;;;;;;25.89;36.93;101716.58;1628608;85;21172;-54
2022/09/02 03:45:09;;;;;;;3.87;1.50;;;;;;;25.87;36.51;101718.03;1658337;85;21042;-55
2022/09/02 03:47:39;;;;;;;10.38;1.95;;;;;;;25.86;36.58;101712.81;1658085;85;21085;-54
2022/09/02 03:50:06;;;;;;;2.60;1.55;;;;;;;25.86;37.01;101716.81;1657785;85;21573;-63
2022/09/02 03:52:33;;;;;;;2.33;1.35;;;;;;;25.86;37.18;101727.48;1658106;85;21079;-54
2022/09/02 03:55:01;;;;;;;1.77;1.20;;;;;;;25.84;37.39;101732.42;1657507;85;21060;-59
2022/09/02 03:57:29;;;;;;;3.00;1.42;;;;;;;25.84;37.13;101724.42;1659996;85;21071;-55
2022/09/02 03:59:56;;;;;;;4.05;1.37;;;;;;;25.83;37.07;101722.73;1710151;81;21033;-54
2022/09/02 04:02:23;;;;;;;2.20;1.17;;;;;;;25.85;37.34;101725.29;1736808;81;21080;-58
2022/09/02 04:04:50;;;;;;;2.98;1.30;;;;;;;25.86;37.31;101728.81;1736842;81;21013;-55
2022/09/02 04:07:17;;;;;;;3.90;1.30;;;;;;;25.88;37.42;101734.89;1736874;81;21489;-54
2022/09/02 04:09:45;;;;;;;4.78;1.22;;;;;;;25.88;37.71;101738.42;1736296;82;21012;-54
2022/09/02 04:12:11;;;;;;;5.50;1.52;;;;;;;25.90;37.88;101739.64;1736987;81;21049;-60
2022/09/02 04:14:40;;;;;;;2.00;1.10;;;;;;;25.89;37.55;101741.92;1736699;81;21032;-53
2022/09/02 04:17:07;;;;;;;3.62;1.20;;;;;;;25.89;37.73;101745.45;1737079;81;21036;-56
2022/09/02 04:19:36;;;;;;;2.85;1.30;;;;;;;25.90;37.93;101733.83;1736697;81;21053;-54
2022/09/02 04:22:03;;;;;;;4.08;1.10;;;;;;;25.91;37.72;101737.33;1736787;81;21044;-57
2022/09/02 04:24:31;;;;;;;3.50;1.50;;;;;;;25.92;37.28;101739.91;1736707;81;21029;-56
2022/09/02 04:26:58;;;;;;;4.20;1.37;;;;;;;25.94;37.61;101742.46;1736738;81;21067;-58
2022/09/02 04:29:26;;;;;;;2.85;1.50;;;;;;;25.94;36.85;101745.13;1736896;81;21083;-55
2022/09/02 04:31:53;;;;;;;2.98;1.27;;;;;;;25.93;36.05;101732.74;1736703;81;21032;-57
2022/09/02 04:34:21;;;;;;;3.65;1.30;;;;;;;25.95;36.25;101746.82;1736818;81;21521;-59
2022/09/02 04:36:48;;;;;;;2.37;1.15;;;;;;;25.96;36.64;101745.87;1737011;83;21080;-55
2022/09/02 04:39:16;;;;;;;3.05;1.15;;;;;;;25.97;36.36;101737.76;1737023;81;21025;-54
2022/09/02 04:41:44;;;;;;;3.02;1.10;;;;;;;25.99;36.00;101732.34;1736644;81;20995;-58
2022/09/02 04:44:12;;;;;;;3.08;0.80;;;;;;;26.01;36.19;101738.42;1712616;83;21129;-55
2022/09/02 04:46:41;;;;;;;2.05;1.20;;;;;;;26.02;35.63;101740.11;1720922;83;21025;-56
2022/09/02 04:49:10;;;;;;;1.47;1.20;;;;;;;26.02;35.84;101742.77;1720855;83;21088;-56
2022/09/02 04:51:38;;;;;;;4.10;1.67;;;;;;;26.04;35.88;101738.19;1720998;83;21041;-56
2022/09/02 04:54:06;;;;;;;2.85;1.65;;;;;;;26.07;35.82;101740.66;1721144;83;21544;-54
2022/09/02 04:56:34;;;;;;;2.15;1.40;;;;;;;26.08;35.86;101749.04;1719683;83;21097;-55
2022/09/02 04:59:02;;;;;;;5.62;1.65;;;;;;;26.08;36.03;101753.91;1720802;83;21049;-56
2022/09/02 05:01:33;;;;;;;1.82;1.62;;;;;;;26.09;36.14;101754.26;1721066;83;21081;-55
2022/09/02 05:04:06;;;;;;;5.90;1.50;;;;;;;26.11;36.29;101752.84;1720979;83;21024;-56
2022/09/02 05:06:35;;;;;;;4.17;1.50;;;;;;;26.11;36.17;101744.84;1694052;83;20974;-55
2022/09/02 05:09:02;;;;;;;4.05;1.60;;;;;;;26.13;36.69;101749.58;1720994;83;21115;-54
2022/09/02 05:11:32;;;;;;;5.95;1.85;;;;;;;26.13;36.85;101745.58;1721150;83;21544;-55
2022/09/02 05:14:03;;;;;;;3.62;1.37;;;;;;;26.15;37.26;101751.66;1721026;83;21446;-54
2022/09/02 05:16:35;;;;;;;2.80;1.67;;;;;;;26.17;37.39;101747.07;1721235;83;21066;-54
2022/09/02 05:19:04;;;;;;;2.80;1.42;;;;;;;26.20;37.67;101752.17;1720965;83;21017;-58
2022/09/02 05:21:33;;;;;;;2.33;1.35;;;;;;;26.22;37.34;101759.11;1705676;83;21041;-55
2022/09/02 05:24:01;;;;;;;2.27;1.40;;;;;;;26.25;37.20;101749.56;1721043;83;21049;-54
2022/09/02 05:26:28;;;;;;;2.72;1.57;;;;;;;26.26;37.30;101756.59;1720807;83;21081;-55
2022/09/02 05:28:56;;;;;;;3.10;1.70;;;;;;;26.29;37.67;101759.53;1720996;83;21044;-61
2022/09/02 05:31:25;;;;;;;3.00;1.50;;;;;;;26.32;37.84;101764.63;1692479;83;21045;-59
2022/09/02 05:33:52;;;;;;;2.83;1.30;;;;;;;26.34;37.68;101752.03;1721125;83;21050;-56
2022/09/02 05:36:21;;;;;;;3.20;1.62;;;;;;;26.37;37.51;101758.50;1721040;83;21029;-54
2022/09/02 05:38:48;;;;;;;4.28;1.72;;;;;;;26.38;37.23;101773.53;1720942;83;21495;-57
2022/09/02 05:41:24;;;;;;;2.08;1.45;;;;;;;26.40;37.36;101771.61;1721054;83;21037;-55
2022/09/02 05:43:56;;;;;;;3.27;1.57;;;;;;;26.42;37.24;101756.36;1692318;83;21587;-56
2022/09/02 05:46:24;;;;;;;5.37;1.40;;;;;;;26.43;36.76;101760.25;1704855;82;21025;-55
2022/09/02 05:49:05;;;;;;;4.10;1.30;;;;;;;26.45;36.66;101768.14;1704884;82;21481;-56
2022/09/02 05:51:46;;;;;;;2.95;1.45;;;;;;;26.48;36.48;101763.93;1701285;82;21064;-54
2022/09/02 05:54:18;;;;;;;1.92;1.35;;;;;;;26.50;36.45;101765.50;1704801;82;21556;-54
2022/09/02 05:56:47;;;;;;;3.65;1.45;;;;;;;26.52;36.61;101765.41;1699472;82;21080;-54
2022/09/02 05:59:14;;;;;;;3.25;1.50;;;;;;;26.54;35.69;101764.81;1700389;84;21013;-56
2022/09/02 06:01:42;;;;;;;3.60;1.50;;;;;;;26.55;35.81;101770.03;1698840;83;21064;-56
2022/09/02 06:04:09;;;;;;;3.22;1.27;;;;;;;26.59;35.93;101771.52;1693462;83;21630;-52
2022/09/02 06:06:37;;;;;;;3.62;1.32;;;;;;;26.62;35.48;101765.11;1700317;83;21085;-53
2022/09/02 06:09:07;;;;;;;5.05;1.32;;;;;;;26.67;35.74;101766.95;1698909;83;21073;-59
2022/09/02 06:11:38;;;;;;;3.40;1.52;;;;;;;26.75;35.59;101765.94;1699128;83;21495;-54
2022/09/02 06:14:06;;;;;;;2.65;1.35;;;;;;;26.83;35.07;101775.56;1699939;84;21565;-53
2022/09/02 06:16:37;;;;;;;3.00;1.50;;;;;;;26.93;34.94;101769.95;1697832;83;21588;-54
2022/09/02 06:19:04;;;;;;;1.95;1.30;;;;;;;27.05;34.61;101769.03;1699304;83;21575;-52
2022/09/02 06:21:31;;;;;;;2.72;1.10;;;;;;;27.21;33.77;101772.73;1698755;83;21087;-52
2022/09/02 06:23:59;;;;;;;3.50;1.22;;;;;;;27.32;33.93;101764.30;1699073;83;21072;-54
2022/09/02 06:26:26;;;;;;;8.20;2.02;;;;;;;27.42;33.94;101759.59;1695494;83;21497;-53
2022/09/02 06:28:55;;;;;;;6.55;1.50;;;;;;;27.48;33.37;101771.16;1699462;83;21089;-55
2022/09/02 06:31:21;;;;;;;6.60;1.60;;;;;;;27.51;33.18;101770.94;1699247;84;21048;-53
2022/09/02 06:33:53;;;;;;;5.85;2.05;;;;;;;27.54;33.33;101772.02;1698818;83;21107;-56
2022/09/02 06:36:21;;;;;;;4.20;1.10;;;;;;;27.58;33.61;101767.66;1700385;83;21075;-53
2022/09/02 06:38:50;;;;;;;3.37;1.40;;;;;;;27.61;33.22;101771.94;1699297;83;21053;-55
2022/09/02 06:41:22;;;;;;;3.12;1.22;;;;;;;27.60;33.53;101777.76;1696591;83;21004;-61
2022/09/02 06:43:49;;;;;;;3.37;1.27;;;;;;;27.60;33.83;101776.90;1689755;84;21557;-53
2022/09/02 06:46:22;;;;;;;4.47;1.30;;;;;;;27.59;33.14;101773.88;1688846;84;21534;-55
2022/09/02 06:48:49;;;;;;;3.20;1.20;;;;;;;27.60;32.84;101779.57;1689332;84;21021;-59
2022/09/02 06:51:22;;;;;;;8.03;1.70;;;;;;;27.61;33.12;101774.61;1690345;84;21033;-53
2022/09/02 06:53:49;;;;;;;2.87;1.52;;;;;;;27.61;33.38;101770.59;1589984;89;21077;-53
2022/09/02 06:56:17;;;;;;;4.58;1.40;;;;;;;27.61;33.88;101770.59;1587549;89;21562;-53
2022/09/02 06:58:44;;;;;;;3.58;0.95;;;;;;;27.63;33.34;101786.03;1587526;89;21149;-61
2022/09/02 07:01:21;;;;;;;4.15;1.25;;;;;;;27.64;33.05;101781.04;1587616;89;21576;-54
2022/09/02 07:06:37;;;;;;;2.85;1.10;;;;;;;27.67;32.61;101791.52;1576988;90;21097;-54
2022/09/02 07:09:05;;;;;;;2.30;1.07;;;;;;;27.70;32.51;101801.98;1541287;92;21088;-60
2022/09/02 07:11:33;;;;;;;6.85;1.40;;;;;;;27.72;32.37;101800.05;1542927;92;21063;-56
2022/09/02 07:14:00;;;;;;;2.52;1.27;;;;;;;27.78;32.70;101802.25;1483278;96;21195;-53
2022/09/02 07:16:33;;;;;;;5.22;1.75;;;;;;;27.81;32.27;101797.98;1547272;92;21567;-56
2022/09/02 07:19:00;;;;;;;5.05;1.10;;;;;;;27.86;32.45;101802.50;1546541;91;21121;-54
2022/09/02 07:21:28;;;;;;;2.47;1.30;;;;;;;27.91;32.80;101809.67;1545938;91;21099;-54
2022/09/02 07:23:57;;;;;;;3.58;1.40;;;;;;;28.00;32.57;101815.69;1546909;92;21638;-54
2022/09/02 07:26:24;;;;;;;5.70;1.30;;;;;;;28.11;32.31;101826.39;1546377;91;21144;-59
2022/09/02 07:28:52;;;;;;;4.40;1.50;;;;;;;28.28;32.01;101830.42;1546587;92;21115;-53
2022/09/02 07:31:20;;;;;;;5.45;1.32;;;;;;;28.43;31.44;101839.45;1548409;91;21166;-53
2022/09/02 07:33:47;;;;;;;1.25;1.10;;;;;;;28.56;31.11;101842.04;1548853;92;21096;-55
2022/09/02 07:36:15;;;;;;;3.70;1.35;;;;;;;28.64;30.90;101848.97;1545471;91;21144;-54
2022/09/02 07:38:42;;;;;;;2.40;1.40;;;;;;;28.67;31.02;101840.19;1548965;91;21100;-53
2022/09/02 07:41:09;;;;;;;3.00;1.20;;;;;;;28.69;30.68;101844.94;1547490;91;21193;-54
2022/09/02 07:43:37;;;;;;;5.35;1.32;;;;;;;28.66;30.80;101837.16;1545027;92;21140;-54
2022/09/02 07:46:04;;;;;;;3.22;1.50;;;;;;;28.64;30.70;101834.23;1502976;94;21555;-53
2022/09/02 07:48:32;;;;;;;4.30;1.62;;;;;;;28.62;31.08;101851.78;1540658;92;21567;-54
2022/09/02 07:51:00;;;;;;;2.92;1.60;;;;;;;28.60;30.87;101844.36;1555383;90;21133;-54
2022/09/02 07:53:28;;;;;;;3.35;1.47;;;;;;;28.59;30.90;101841.30;1576600;90;21012;-56
2022/09/02 07:55:55;;;;;;;3.05;1.67;;;;;;;28.55;30.70;101830.44;1578076;90;21057;-60
2022/09/02 07:58:22;;;;;;;4.85;1.90;;;;;;;28.49;30.81;101836.28;1582897;90;21072;-58
2022/09/02 08:00:50;;;;;;;6.42;2.02;;;;;;;28.45;31.09;101837.50;1573574;90;21531;-53
2022/09/02 08:03:17;;;;;;;7.30;1.82;;;;;;;28.43;31.38;101834.09;1613290;88;21104;-54
2022/09/02 08:05:46;;;;;;;7.20;2.00;;;;;;;28.41;31.58;101844.08;1605145;89;21110;-55
2022/09/02 08:08:14;;;;;;;7.78;2.08;;;;;;;28.43;31.77;101842.12;1601068;89;21131;-55
2022/09/02 08:10:42;;;;;;;6.03;1.82;;;;;;;28.43;31.86;101839.45;1608675;89;21362;-54
2022/09/02 08:13:09;;;;;;;8.40;2.45;;;;;;;28.44;31.87;101835.78;1677984;85;21089;-54
2022/09/02 08:15:37;;;;;;;71.45;5.42;;;;;;;28.46;32.17;101847.22;1689909;84;21486;-54
2022/09/02 08:18:05;;;;;;;6.78;1.92;;;;;;;28.46;31.80;101848.56;1690260;84;21081;-54
2022/09/02 08:20:32;;;;;;;7.75;1.70;;;;;;;28.47;31.60;101846.27;1689802;84;21034;-56
2022/09/02 08:22:59;;;;;;;4.60;1.65;;;;;;;28.35;31.66;101847.23;1689859;84;21053;-53
2022/09/02 08:25:26;;;;;;;10.95;2.60;;;;;;;28.32;31.44;101843.45;1690076;84;20999;-61
2022/09/02 08:27:53;;;;;;;10.90;2.22;;;;;;;28.30;31.08;101850.75;1690006;84;21498;-56
2022/09/02 08:30:21;;;;;;;3.40;2.30;;;;;;;28.31;31.13;101848.45;1690035;84;21038;-53
2022/09/02 08:32:48;;;;;;;3.12;2.25;;;;;;;28.32;31.30;101854.63;1689918;84;21018;-54
2022/09/02 08:35:15;;;;;;;18.77;2.60;;;;;;;28.33;31.21;101850.52;1690131;85;21045;-53
2022/09/02 08:37:42;;;;;;;10.18;2.58;;;;;;;28.37;31.38;101845.30;1690213;84;21556;-59
2022/09/02 08:40:17;;;;;;;6.30;2.47;;;;;;;28.40;31.58;101853.06;1689931;84;21558;-54
2022/09/02 08:42:47;;;;;;;6.08;2.62;;;;;;;28.41;30.84;101850.77;1605842;88;21514;-54
2022/09/02 08:45:25;;;;;;;4.60;2.67;;;;;;;28.51;30.45;101850.40;1607622;87;21089;-53
2022/09/02 08:48:07;;;;;;;8.48;2.50;;;;;;;28.54;30.44;101852.81;1603400;87;21610;-56
2022/09/02 08:50:34;;;;;;;11.95;2.60;;;;;;;28.52;30.70;101851.26;1607789;87;21517;-53
2022/09/02 08:53:12;;;;;;;11.08;2.60;;;;;;;28.51;30.65;101846.38;1608206;89;21094;-53
2022/09/02 08:55:46;;;;;;;6.00;2.40;;;;;;;28.58;30.79;101843.63;1570544;91;21542;-53
2022/09/02 08:58:17;;;;;;;5.58;2.25;;;;;;;28.58;30.61;101835.59;1536701;93;21576;-55
2022/09/02 09:00:45;;;;;;;8.53;2.15;;;;;;;28.60;30.80;101832.30;1529266;93;21093;-56
2022/09/02 09:03:23;;;;;;;7.50;2.33;;;;;;;28.63;30.47;101831.19;1532238;93;21062;-60
2022/09/02 09:06:11;;;;;;;6.92;2.45;;;;;;;28.66;30.04;101832.29;1525231;93;21089;-54
2022/09/02 09:09:14;;;;;;;5.97;2.40;;;;;;;28.67;30.33;101830.82;1524950;93;21138;-58
2022/09/02 09:11:50;;;;;;;9.08;3.40;;;;;;;28.70;30.50;101831.92;1522019;93;21069;-54
2022/09/02 09:14:43;;;;;;;11.73;2.98;;;;;;;28.73;30.04;101837.02;1493979;94;21161;-57
2022/09/02 09:17:18;;;;;;;6.08;2.10;;;;;;;28.76;30.32;101838.13;1561642;91;21158;-53
2022/09/02 09:19:53;;;;;;;3.10;2.02;;;;;;;28.79;30.24;101833.02;1503979;95;21093;-53
2022/09/02 09:22:25;;;;;;;4.22;2.15;;;;;;;28.79;30.30;101839.20;1505145;94;21096;-54
2022/09/02 09:24:52;;;;;;;4.40;2.75;;;;;;;28.81;30.55;101842.60;1440674;98;21080;-55
2022/09/02 09:27:20;;;;;;;3.92;2.30;;;;;;;28.84;30.27;101846.87;1444219;99;21177;-56
2022/09/02 09:29:48;;;;;;;7.87;2.50;;;;;;;28.85;30.04;101849.93;1448398;98;21141;-55
2022/09/02 09:35:05;;;;;;;8.10;2.55;;;;;;;28.89;30.46;101852.72;1419424;100;21229;-54
2022/09/02 09:37:46;;;;;;;7.12;2.37;;;;;;;28.88;30.27;101845.16;1416339;101;21169;-54
2022/09/02 09:40:26;;;;;;;5.90;2.70;;;;;;;28.89;30.12;101842.83;1436760;99;21675;-55
2022/09/02 09:43:09;;;;;;;7.08;2.40;;;;;;;28.92;30.48;101842.59;1437316;99;21138;-55
2022/09/02 09:45:47;;;;;;;8.98;2.22;;;;;;;28.95;29.59;101838.82;1412037;100;21746;-54
2022/09/02 09:51:02;;;;;;;8.83;2.12;;;;;;;28.94;29.20;101840.64;1417751;99;21235;-58
2022/09/02 09:53:32;;;;;;;18.70;2.45;;;;;;;28.95;28.68;101836.97;1415715;101;21094;-53
2022/09/02 09:56:16;;;;;;;10.55;2.20;;;;;;;28.95;28.74;101842.33;1384213;101;21180;-56
2022/09/02 09:58:45;;;;;;;9.48;2.70;;;;;;;28.94;28.79;101850.02;1399579;101;21143;-56
2022/09/02 10:01:18;;;;;;;4.55;2.30;;;;;;;28.96;28.76;101849.89;1406607;101;21163;-53
2022/09/02 10:04:00;;;;;;;6.08;2.52;;;;;;;28.98;29.13;101849.27;1409289;101;21131;-54
2022/09/02 10:06:38;;;;;;;18.10;3.40;;;;;;;29.02;28.78;101853.92;1414333;101;21186;-57
2022/09/02 10:09:22;;;;;;;10.90;3.17;;;;;;;29.06;28.79;101851.34;1410289;101;21102;-53
2022/09/02 10:12:04;;;;;;;7.72;2.70;;;;;;;29.10;28.90;101842.91;1363098;104;21626;-54
2022/09/02 10:14:48;;;;;;;9.63;3.20;;;;;;;29.14;28.82;101840.84;1367944;104;21130;-55
2022/09/02 10:17:41;;;;;;;5.45;2.55;;;;;;;29.18;28.83;101845.84;1392470;101;21127;-53
2022/09/02 10:20:25;;;;;;;6.60;2.12;;;;;;;29.22;28.94;101846.45;1400263;101;21143;-55
2022/09/02 10:23:03;;;;;;;8.05;2.85;;;;;;;29.25;28.35;101835.47;1447144;98;21182;-57
2022/09/02 10:25:57;;;;;;;41.15;5.95;;;;;;;29.24;28.29;101853.41;1429232;100;21699;-53
2022/09/02 10:29:01;;;;;;;8.38;3.58;;;;;;;29.22;28.78;101839.76;1426092;101;21655;-56
2022/09/02 10:31:45;;;;;;;5.50;2.83;;;;;;;29.22;28.60;101834.39;1465925;97;21134;-57
2022/09/02 10:34:32;;;;;;;12.18;2.70;;;;;;;29.20;28.26;101833.19;1435450;100;21193;-61
2022/09/02 10:37:13;;;;;;;4.83;2.20;;;;;;;29.18;28.45;101827.08;1435826;100;21572;-55
2022/09/02 10:40:14;;;;;;;4.00;2.12;;;;;;;29.14;28.36;101832.80;1435594;100;21096;-57
2022/09/02 10:43:04;;;;;;;4.12;2.12;;;;;;;29.11;28.54;101827.69;1435644;100;21095;-59
2022/09/02 10:45:46;;;;;;;4.70;2.40;;;;;;;29.11;28.54;101828.55;1428497;99;21178;-55
2022/09/02 10:48:50;;;;;;;2.85;1.85;;;;;;;29.12;28.35;101822.19;1504192;92;21588;-55
2022/09/02 10:51:28;;;;;;;6.28;2.20;;;;;;;29.12;27.80;101821.36;1538882;92;21090;-58
2022/09/02 10:54:08;;;;;;;2.95;1.90;;;;;;;29.11;27.75;101812.46;1538593;92;21085;-54
2022/09/02 10:56:56;;;;;;;5.92;2.10;;;;;;;29.10;28.33;101807.23;1494538;95;21625;-55
2022/09/02 10:59:48;;;;;;;7.42;2.08;;;;;;;29.11;27.96;101811.60;1508567;95;21118;-57
2022/09/02 11:02:23;;;;;;;3.80;2.00;;;;;;;29.15;28.25;101807.72;1507548;94;21554;-52
2022/09/02 11:05:03;;;;;;;5.42;1.98;;;;;;;29.16;28.28;101813.46;1516494;94;21598;-54
2022/09/02 11:07:36;;;;;;;4.03;2.00;;;;;;;29.18;28.27;101815.52;1516599;95;21089;-55
2022/09/02 11:10:22;;;;;;;3.83;2.30;;;;;;;29.18;27.55;101802.13;1471575;96;21091;-57
2022/09/02 11:13:13;;;;;;;4.00;1.82;;;;;;;29.19;27.96;101801.12;1467193;96;21071;-55
2022/09/02 11:16:14;;;;;;;4.87;1.77;;;;;;;29.18;27.82;101801.61;1471636;96;21185;-55
2022/09/02 11:19:17;;;;;;;3.77;2.45;;;;;;;29.19;28.06;101798.45;1408873;100;21917;-55
2022/09/02 11:22:01;;;;;;;7.35;2.25;;;;;;;29.21;28.03;101793.80;1408840;102;21112;-55
2022/09/02 11:24:43;;;;;;;11.90;1.95;;;;;;;29.23;27.55;101797.20;1408977;102;21614;-54
2022/09/02 11:27:45;;;;;;;5.15;2.15;;;;;;;29.26;27.41;101794.29;1408844;102;21133;-62
2022/09/02 11:30:16;;;;;;;7.10;2.47;;;;;;;29.28;27.29;101786.48;1421958;97;21632;-62
2022/09/02 11:33:22;;;;;;;3.95;1.98;;;;;;;29.34;27.54;101785.11;1490644;92;21083;-57
2022/09/02 11:35:49;;;;;;;3.72;1.80;;;;;;;29.38;27.57;101786.55;1524005;93;21166;-56
2022/09/02 11:38:46;;;;;;;3.90;2.45;;;;;;;29.39;27.66;101782.87;1509389;94;21084;-56
2022/09/02 11:41:34;;;;;;;2.40;2.00;;;;;;;29.41;27.83;101786.27;1534081;93;21091;-55
2022/09/02 11:44:40;;;;;;;5.87;2.40;;;;;;;29.43;27.82;101780.33;1531425;93;21076;-55
2022/09/02 11:47:25;;;;;;;3.40;2.15;;;;;;;29.45;27.91;101778.36;1510365;94;21143;-52
2022/09/02 11:50:33;;;;;;;5.15;2.08;;;;;;;29.47;27.85;101771.86;1534581;93;21132;-62
2022/09/02 11:53:20;;;;;;;4.80;1.60;;;;;;;29.49;27.82;101775.78;1506535;94;21084;-56
2022/09/02 11:56:15;;;;;;;4.12;1.72;;;;;;;29.48;27.83;101775.41;1531363;93;21092;-57